Time;durP1;ratioP1;P1;durP2;ratioP2;P2;SDS_P1;SDS_P2;PMS_P1;PMS_P2;Temp;Humidity;BMP_temperature;BMP_pressure;BME280_temperature;BME280_humidity;BME280_pressure;Samples;Min_cycle;Max_cycle;Signal;HPM_P1;HPM_P2
2022/10/15 00:02:11;;;;;;;3.42;2.50;;;17.40;65.40;;;;;;5069425;28;20102;-75
2022/10/15 00:04:38;;;;;;;2.83;2.42;;;17.50;65.50;;;;;;5069979;28;20085;-75
2022/10/15 00:07:06;;;;;;;2.95;2.25;;;17.50;65.50;;;;;;5070360;28;20058;-76
2022/10/15 00:09:32;;;;;;;3.30;2.50;;;17.50;65.50;;;;;;5070945;28;20406;-76
2022/10/15 00:11:59;;;;;;;3.40;2.58;;;17.40;65.50;;;;;;5069947;28;20052;-76
2022/10/15 00:14:26;;;;;;;3.83;2.60;;;17.40;65.50;;;;;;5070078;28;20048;-76
2022/10/15 00:16:52;;;;;;;2.78;2.40;;;17.40;65.50;;;;;;5070538;28;20056;-76
2022/10/15 00:19:19;;;;;;;3.13;2.70;;;17.40;65.50;;;;;;5070259;28;20490;-76
2022/10/15 00:21:46;;;;;;;3.15;2.75;;;17.40;65.50;;;;;;5069969;28;20143;-76
2022/10/15 00:24:14;;;;;;;3.10;2.50;;;17.40;65.50;;;;;;5070291;28;20051;-76
2022/10/15 00:26:41;;;;;;;3.03;2.67;;;17.40;65.50;;;;;;5069915;28;20052;-76
2022/10/15 00:29:07;;;;;;;3.33;2.40;;;17.40;65.50;;;;;;5070123;28;20059;-76
2022/10/15 00:31:34;;;;;;;2.88;2.47;;;17.40;65.60;;;;;;5072448;28;20056;-76
2022/10/15 00:34:01;;;;;;;3.92;2.97;;;17.30;65.50;;;;;;5074282;28;20056;-76
2022/10/15 00:36:29;;;;;;;3.65;2.80;;;17.30;65.50;;;;;;5073871;28;20052;-76
2022/10/15 00:38:56;;;;;;;3.15;2.60;;;17.30;65.50;;;;;;5074199;28;20058;-76
2022/10/15 00:41:27;;;;;;;2.88;2.50;;;17.30;65.50;;;;;;5073606;28;20060;-76
2022/10/15 00:43:54;;;;;;;3.28;2.40;;;17.30;65.50;;;;;;5073681;28;20063;-76
2022/10/15 00:46:24;;;;;;;3.25;2.70;;;17.30;65.50;;;;;;5073926;28;20135;-75
2022/10/15 00:48:53;;;;;;;3.53;2.78;;;17.30;65.50;;;;;;5073911;28;20131;-76
2022/10/15 00:51:19;;;;;;;3.63;2.70;;;17.30;65.60;;;;;;5073150;28;20063;-76
2022/10/15 00:53:47;;;;;;;3.65;3.00;;;17.30;65.60;;;;;;5073367;28;20132;-76
2022/10/15 00:56:13;;;;;;;2.58;2.38;;;17.30;65.60;;;;;;5073698;28;20052;-76
2022/10/15 00:58:41;;;;;;;3.05;2.75;;;17.30;65.60;;;;;;5073774;28;20383;-76
2022/10/15 01:01:08;;;;;;;3.92;2.75;;;17.30;65.60;;;;;;5073191;28;20060;-76
2022/10/15 01:03:35;;;;;;;3.30;2.88;;;17.30;65.60;;;;;;5073735;28;20139;-76
2022/10/15 01:06:02;;;;;;;2.92;2.47;;;17.30;65.60;;;;;;5072976;28;20057;-76
2022/10/15 01:08:29;;;;;;;3.40;2.88;;;17.30;65.60;;;;;;5073446;28;20127;-76
2022/10/15 01:11:00;;;;;;;2.95;2.45;;;17.30;65.60;;;;;;5072903;28;20054;-75
2022/10/15 01:13:31;;;;;;;3.78;2.88;;;17.20;65.50;;;;;;5073364;28;20052;-76
2022/10/15 01:16:02;;;;;;;4.00;2.88;;;17.30;65.60;;;;;;5073419;28;20057;-76
2022/10/15 01:18:31;;;;;;;3.88;2.78;;;17.30;65.60;;;;;;5074281;28;20131;-76
2022/10/15 01:21:01;;;;;;;3.30;3.00;;;17.20;65.60;;;;;;5074120;28;20497;-76
2022/10/15 01:23:52;;;;;;;3.70;2.88;;;17.20;65.60;;;;;;5073019;28;20066;-76
2022/10/15 01:27:06;;;;;;;3.35;2.75;;;17.30;65.60;;;;;;5073922;28;20132;-76
2022/10/15 01:29:47;;;;;;;3.65;2.90;;;17.00;65.60;;;;;;4976422;28;20058;-76
2022/10/15 01:32:17;;;;;;;3.50;2.83;;;17.20;65.70;;;;;;5051164;28;20067;-76
2022/10/15 01:34:46;;;;;;;3.30;3.00;;;17.20;65.60;;;;;;5052933;28;20053;-76
2022/10/15 01:37:16;;;;;;;3.15;2.85;;;17.20;65.60;;;;;;5052848;28;20136;-76
2022/10/15 01:39:45;;;;;;;3.90;2.95;;;17.20;65.60;;;;;;5069441;28;20052;-76
2022/10/15 01:42:14;;;;;;;4.47;2.90;;;17.20;65.60;;;;;;5072460;28;20383;-76
2022/10/15 01:44:42;;;;;;;3.65;2.80;;;17.20;65.60;;;;;;5072760;28;20053;-76
2022/10/15 01:47:11;;;;;;;3.22;2.88;;;17.20;65.60;;;;;;5072608;28;20048;-76
2022/10/15 01:49:42;;;;;;;4.40;2.97;;;17.20;65.60;;;;;;5072845;28;20055;-76
2022/10/15 01:52:09;;;;;;;4.07;3.15;;;17.20;65.60;;;;;;5073322;28;20048;-76
2022/10/15 01:54:36;;;;;;;3.83;3.30;;;17.20;65.60;;;;;;5072287;28;20409;-76
2022/10/15 01:57:03;;;;;;;4.28;3.17;;;17.20;65.60;;;;;;5072378;28;20054;-76
2022/10/15 01:59:31;;;;;;;3.58;3.03;;;17.20;65.60;;;;;;5072499;28;20549;-76
2022/10/15 02:01:58;;;;;;;3.53;2.90;;;17.20;65.60;;;;;;5072198;28;20056;-76
2022/10/15 02:04:25;;;;;;;3.58;3.03;;;17.20;65.60;;;;;;5071954;28;20087;-76
2022/10/15 02:06:56;;;;;;;3.50;3.00;;;17.20;65.60;;;;;;5072483;28;20135;-75
2022/10/15 02:09:28;;;;;;;3.47;3.10;;;17.20;65.60;;;;;;5072387;28;20059;-75
2022/10/15 02:12:00;;;;;;;3.63;2.80;;;17.20;65.60;;;;;;5073216;28;20124;-75
2022/10/15 02:14:29;;;;;;;3.95;3.00;;;17.20;65.60;;;;;;5072225;28;20386;-75
2022/10/15 02:16:58;;;;;;;3.65;2.83;;;17.20;65.60;;;;;;5072071;28;20055;-75
2022/10/15 02:19:26;;;;;;;5.03;3.00;;;17.30;65.60;;;;;;5071846;28;20057;-75
2022/10/15 02:21:57;;;;;;;3.63;3.25;;;17.20;65.60;;;;;;5073140;28;20119;-75
2022/10/15 02:24:26;;;;;;;3.55;3.03;;;17.20;65.60;;;;;;5071744;28;20067;-75
2022/10/15 02:26:53;;;;;;;3.80;3.25;;;17.20;65.60;;;;;;5072040;28;20123;-75
2022/10/15 02:29:21;;;;;;;4.85;3.33;;;17.20;65.60;;;;;;5071958;28;20052;-75
2022/10/15 02:31:48;;;;;;;3.55;2.83;;;17.20;65.60;;;;;;5071801;28;20507;-75
2022/10/15 02:34:16;;;;;;;3.63;3.00;;;17.20;65.60;;;;;;5071738;28;20052;-75
2022/10/15 02:36:42;;;;;;;3.58;3.13;;;17.20;65.60;;;;;;5071779;28;20500;-75
2022/10/15 02:39:12;;;;;;;3.70;3.13;;;17.20;65.60;;;;;;5071354;28;20048;-75
2022/10/15 02:41:39;;;;;;;4.82;3.22;;;17.10;65.50;;;;;;5071181;28;20131;-75
2022/10/15 02:44:05;;;;;;;3.70;3.13;;;17.10;65.50;;;;;;5071734;28;20060;-75
2022/10/15 02:46:32;;;;;;;3.50;2.83;;;17.10;65.60;;;;;;5071314;28;20052;-75
2022/10/15 02:48:59;;;;;;;3.30;2.90;;;17.10;65.60;;;;;;5072214;28;20377;-75
2022/10/15 02:51:25;;;;;;;4.00;3.22;;;17.10;65.60;;;;;;5071008;28;20048;-75
2022/10/15 02:53:52;;;;;;;4.28;3.20;;;17.10;65.60;;;;;;5071717;28;20055;-75
2022/10/15 02:56:20;;;;;;;3.65;3.10;;;17.10;65.60;;;;;;5071482;28;20405;-75
2022/10/15 02:58:47;;;;;;;3.97;3.28;;;17.10;65.60;;;;;;5071485;28;20059;-75
2022/10/15 03:01:13;;;;;;;5.00;3.35;;;17.10;65.60;;;;;;5070785;28;20573;-75
2022/10/15 03:03:40;;;;;;;4.07;3.17;;;17.10;65.60;;;;;;5070919;28;20059;-75
2022/10/15 03:06:07;;;;;;;3.75;2.92;;;17.10;65.60;;;;;;5071022;28;20048;-75
2022/10/15 03:08:34;;;;;;;4.07;3.28;;;17.10;65.60;;;;;;5071323;28;20132;-75
2022/10/15 03:11:01;;;;;;;3.50;3.15;;;17.10;65.60;;;;;;5070563;28;20056;-75
2022/10/15 03:13:29;;;;;;;4.43;3.38;;;17.10;65.60;;;;;;5072243;28;20410;-75
2022/10/15 03:15:55;;;;;;;4.20;3.28;;;17.10;65.60;;;;;;5070865;28;20052;-75
2022/10/15 03:18:22;;;;;;;3.88;3.08;;;17.10;65.60;;;;;;5070738;28;20127;-75
2022/10/15 03:20:53;;;;;;;4.55;3.17;;;17.10;65.60;;;;;;5070772;28;20056;-75
2022/10/15 03:23:20;;;;;;;5.30;3.50;;;17.10;65.60;;;;;;5071172;28;20131;-75
2022/10/15 03:25:47;;;;;;;3.70;3.03;;;17.00;65.60;;;;;;5071968;28;20400;-75
2022/10/15 03:28:13;;;;;;;4.45;3.65;;;17.10;65.60;;;;;;5070484;28;20425;-75
2022/10/15 03:30:42;;;;;;;4.32;3.00;;;17.10;65.70;;;;;;5070470;28;20485;-75
2022/10/15 03:33:09;;;;;;;3.83;3.05;;;17.10;65.60;;;;;;5070851;28;20060;-75
2022/10/15 03:35:35;;;;;;;3.90;3.20;;;17.00;65.60;;;;;;5070866;28;20087;-75
2022/10/15 03:38:02;;;;;;;4.25;3.00;;;17.00;65.60;;;;;;5071693;28;20152;-75
2022/10/15 03:40:29;;;;;;;4.32;3.22;;;17.00;65.60;;;;;;5070527;28;20052;-75
2022/10/15 03:42:56;;;;;;;4.32;3.50;;;17.00;65.60;;;;;;5070808;28;20078;-75
2022/10/15 03:45:23;;;;;;;5.07;3.70;;;17.00;65.60;;;;;;5070669;28;20044;-75
2022/10/15 03:47:51;;;;;;;4.55;3.40;;;17.00;65.60;;;;;;5070582;28;20143;-75
2022/10/15 03:50:18;;;;;;;4.90;3.60;;;17.00;65.60;;;;;;5071516;28;20652;-75
2022/10/15 03:52:44;;;;;;;4.32;3.33;;;17.00;65.60;;;;;;5070526;28;20063;-75
2022/10/15 03:55:11;;;;;;;4.22;3.47;;;17.00;65.60;;;;;;5070684;28;20055;-75
2022/10/15 03:57:38;;;;;;;4.28;3.28;;;17.00;65.60;;;;;;5070539;28;20067;-75
2022/10/15 04:00:06;;;;;;;4.88;3.65;;;17.00;65.60;;;;;;5070248;28;20473;-75
2022/10/15 04:02:33;;;;;;;4.28;3.28;;;17.00;65.60;;;;;;5070429;28;20060;-75
2022/10/15 04:05:01;;;;;;;4.68;3.30;;;17.00;65.60;;;;;;5072293;28;20055;-75
2022/10/15 04:07:27;;;;;;;4.43;3.45;;;17.00;65.60;;;;;;5074679;28;20053;-75
2022/10/15 04:09:54;;;;;;;4.45;3.30;;;17.00;65.60;;;;;;5074507;28;20136;-75
2022/10/15 04:12:21;;;;;;;4.30;3.40;;;17.00;65.60;;;;;;5075270;28;20474;-75
2022/10/15 04:14:47;;;;;;;5.03;3.65;;;17.00;65.60;;;;;;5054432;28;20137;-75
2022/10/15 04:17:14;;;;;;;4.43;3.45;;;17.00;65.60;;;;;;5054117;28;20063;-75
2022/10/15 04:19:41;;;;;;;4.88;3.60;;;17.00;65.60;;;;;;5054266;28;20056;-75
2022/10/15 04:22:09;;;;;;;4.47;3.60;;;17.00;65.60;;;;;;5053869;28;20053;-75
2022/10/15 04:24:35;;;;;;;4.68;3.47;;;17.00;65.60;;;;;;5054173;28;20053;-75
2022/10/15 04:27:02;;;;;;;4.45;3.35;;;17.00;65.50;;;;;;5054047;28;20075;-75
2022/10/15 04:29:29;;;;;;;4.10;3.38;;;17.00;65.60;;;;;;5073274;28;20048;-75
2022/10/15 04:31:56;;;;;;;4.45;3.30;;;17.00;65.50;;;;;;5073949;28;20506;-75
2022/10/15 04:34:22;;;;;;;4.38;3.40;;;17.00;65.60;;;;;;5073933;28;20136;-75
2022/10/15 04:36:49;;;;;;;5.32;3.72;;;17.00;65.50;;;;;;5073962;28;20053;-75
2022/10/15 04:39:18;;;;;;;4.68;3.33;;;17.00;65.50;;;;;;5074076;28;20059;-75
2022/10/15 04:41:44;;;;;;;4.85;3.50;;;17.00;65.50;;;;;;5072916;28;20066;-75
2022/10/15 04:44:11;;;;;;;4.47;3.53;;;17.00;65.50;;;;;;5073613;28;20058;-75
2022/10/15 04:46:38;;;;;;;4.90;3.45;;;17.00;65.60;;;;;;5073365;28;20409;-75
2022/10/15 04:49:04;;;;;;;4.40;3.65;;;17.00;65.60;;;;;;5073982;28;20054;-75
2022/10/15 04:51:31;;;;;;;4.68;3.50;;;17.00;65.60;;;;;;5073332;28;20136;-75
2022/10/15 04:54:00;;;;;;;4.00;3.13;;;17.00;65.60;;;;;;5073661;28;20548;-75
2022/10/15 04:56:28;;;;;;;4.35;3.40;;;17.00;65.60;;;;;;5073883;28;20052;-75
2022/10/15 04:58:55;;;;;;;4.10;3.25;;;17.00;65.60;;;;;;5074478;28;20071;-75
2022/10/15 05:01:22;;;;;;;4.93;3.67;;;17.00;65.60;;;;;;5073390;28;20135;-75
2022/10/15 05:03:49;;;;;;;4.07;3.28;;;17.00;65.60;;;;;;5073700;28;20143;-75
2022/10/15 05:06:17;;;;;;;4.50;3.58;;;17.00;65.60;;;;;;5073314;28;20052;-75
2022/10/15 05:08:44;;;;;;;4.25;3.40;;;17.00;65.80;;;;;;5073472;28;20053;-75
2022/10/15 05:11:11;;;;;;;4.97;3.45;;;15.00;64.50;;;;;;5073286;28;20116;-75
2022/10/15 05:13:39;;;;;;;4.00;3.28;;;16.90;65.50;;;;;;5073100;28;20059;-75
2022/10/15 05:16:13;;;;;;;4.97;3.60;;;17.00;65.60;;;;;;5072534;28;20048;-75
2022/10/15 05:18:40;;;;;;;4.53;3.38;;;17.00;65.50;;;;;;5073258;28;20106;-75
2022/10/15 05:21:07;;;;;;;4.72;3.60;;;16.90;65.50;;;;;;5074081;28;20143;-75
2022/10/15 05:23:35;;;;;;;4.22;2.95;;;16.90;65.50;;;;;;5073080;28;20136;-75
2022/10/15 05:26:02;;;;;;;4.97;3.75;;;16.90;65.50;;;;;;5073891;28;20405;-75
2022/10/15 05:28:29;;;;;;;5.53;3.75;;;17.00;65.60;;;;;;5073355;28;20053;-75
2022/10/15 05:30:57;;;;;;;4.03;3.47;;;16.90;65.50;;;;;;5072949;28;20485;-75
2022/10/15 05:33:24;;;;;;;4.95;3.58;;;16.90;65.50;;;;;;5073042;28;20063;-75
2022/10/15 05:35:50;;;;;;;4.45;3.58;;;16.90;65.50;;;;;;5073065;28;20132;-75
2022/10/15 05:38:17;;;;;;;4.65;3.60;;;16.90;65.50;;;;;;5073077;28;20060;-75
2022/10/15 05:40:48;;;;;;;4.60;3.35;;;16.90;65.50;;;;;;5072546;28;20059;-75
2022/10/15 05:43:14;;;;;;;4.18;3.30;;;16.90;65.50;;;;;;5073002;28;20060;-75
2022/10/15 05:45:41;;;;;;;5.13;3.72;;;16.90;65.50;;;;;;5072421;28;20139;-75
2022/10/15 05:48:09;;;;;;;4.43;3.55;;;16.90;65.50;;;;;;5072801;28;20525;-75
2022/10/15 05:50:36;;;;;;;4.35;3.20;;;16.90;65.50;;;;;;5071761;28;20052;-75
2022/10/15 05:53:02;;;;;;;4.85;3.60;;;16.90;65.50;;;;;;5072377;28;20131;-75
2022/10/15 05:55:29;;;;;;;3.90;3.03;;;16.90;65.50;;;;;;5072660;28;20056;-75
2022/10/15 05:57:58;;;;;;;4.50;3.47;;;16.90;65.50;;;;;;5072825;28;20564;-75
2022/10/15 06:00:25;;;;;;;4.90;3.65;;;16.90;65.50;;;;;;5071955;28;20059;-75
2022/10/15 06:02:52;;;;;;;4.40;3.60;;;16.90;65.50;;;;;;5072163;28;20060;-75
2022/10/15 06:05:20;;;;;;;4.90;3.63;;;16.90;65.50;;;;;;5072151;28;20056;-75
2022/10/15 06:07:47;;;;;;;4.75;3.50;;;16.90;65.50;;;;;;5071772;28;20143;-75
2022/10/15 06:10:13;;;;;;;4.63;3.72;;;16.90;65.50;;;;;;5072120;28;20485;-75
2022/10/15 06:12:41;;;;;;;4.70;3.60;;;16.90;65.50;;;;;;5072434;28;20061;-75
2022/10/15 06:15:08;;;;;;;4.30;3.45;;;16.90;65.50;;;;;;5072442;28;20056;-75
2022/10/15 06:17:35;;;;;;;4.68;3.58;;;16.90;65.50;;;;;;5072161;28;20132;-75
2022/10/15 06:20:02;;;;;;;5.05;3.72;;;16.90;65.50;;;;;;5071874;28;20148;-75
2022/10/15 06:22:32;;;;;;;4.65;3.30;;;16.90;65.50;;;;;;5071770;28;20060;-75
2022/10/15 06:24:58;;;;;;;5.28;3.65;;;16.90;65.50;;;;;;5071938;28;20057;-75
2022/10/15 06:27:25;;;;;;;4.38;3.72;;;16.90;65.50;;;;;;5071599;28;20053;-73
2022/10/15 06:29:52;;;;;;;5.35;3.53;;;16.90;65.50;;;;;;5072763;28;20067;-76
2022/10/15 06:32:18;;;;;;;5.00;3.72;;;16.90;65.50;;;;;;5071523;28;20058;-76
2022/10/15 06:34:45;;;;;;;4.10;3.17;;;16.90;65.50;;;;;;5072870;28;20052;-75
2022/10/15 06:37:12;;;;;;;3.97;3.35;;;16.90;65.50;;;;;;5071675;28;20056;-76
2022/10/15 06:39:40;;;;;;;4.18;3.22;;;16.90;65.50;;;;;;5071879;28;20053;-76
2022/10/15 06:42:07;;;;;;;4.38;3.38;;;16.90;65.40;;;;;;5071846;28;20052;-77
2022/10/15 06:44:33;;;;;;;4.25;3.38;;;16.90;65.40;;;;;;5071424;28;20127;-76
2022/10/15 06:47:00;;;;;;;5.75;3.65;;;16.90;65.40;;;;;;5071562;28;20127;-76
2022/10/15 06:49:27;;;;;;;4.50;3.38;;;16.90;65.40;;;;;;5072487;28;20059;-76
2022/10/15 06:51:53;;;;;;;7.95;3.92;;;17.00;65.40;;;;;;5071542;28;20140;-76
2022/10/15 06:54:20;;;;;;;4.05;3.25;;;17.00;65.30;;;;;;5072920;28;20468;-76
2022/10/15 06:56:48;;;;;;;4.85;3.47;;;17.10;65.20;;;;;;5071656;28;20152;-76
2022/10/15 06:59:15;;;;;;;5.35;3.58;;;17.10;65.20;;;;;;5071212;28;20144;-76
2022/10/15 07:01:42;;;;;;;5.05;3.45;;;17.20;65.10;;;;;;5071159;28;20143;-76
2022/10/15 07:04:08;;;;;;;7.63;3.95;;;17.20;65.00;;;;;;5071396;28;20055;-76
2022/10/15 07:06:36;;;;;;;7.95;4.13;;;17.30;65.00;;;;;;5071244;28;20123;-76
2022/10/15 07:09:03;;;;;;;6.20;3.75;;;17.30;65.00;;;;;;5071462;28;20058;-76
2022/10/15 07:11:29;;;;;;;3.70;3.20;;;17.40;65.00;;;;;;5071024;28;20581;-76
2022/10/15 07:13:57;;;;;;;5.80;3.72;;;17.40;65.00;;;;;;5071261;28;20599;-76
2022/10/15 07:16:25;;;;;;;5.13;3.45;;;17.50;65.00;;;;;;5071489;28;20044;-76
2022/10/15 07:18:52;;;;;;;4.63;3.45;;;17.50;65.00;;;;;;5071042;28;20059;-77
2022/10/15 07:21:18;;;;;;;4.82;3.50;;;17.60;65.10;;;;;;5071693;28;20084;-77
2022/10/15 07:23:45;;;;;;;3.92;3.20;;;17.60;65.00;;;;;;5072322;28;20146;-77
2022/10/15 07:26:12;;;;;;;4.50;3.47;;;17.70;65.00;;;;;;5072290;28;20230;-77
2022/10/15 07:28:39;;;;;;;5.28;3.28;;;17.70;65.00;;;;;;5070935;28;20057;-77
2022/10/15 07:31:07;;;;;;;4.05;3.40;;;17.70;64.90;;;;;;5070626;28;20504;-77
2022/10/15 07:33:34;;;;;;;4.13;3.00;;;17.80;64.90;;;;;;5070932;28;20525;-77
2022/10/15 07:36:02;;;;;;;5.13;3.40;;;17.80;64.80;;;;;;5071989;28;20127;-77
2022/10/15 07:38:29;;;;;;;3.85;3.13;;;17.80;64.80;;;;;;5071132;28;20493;-76
2022/10/15 07:40:58;;;;;;;5.28;3.35;;;17.90;64.80;;;;;;5069897;28;20131;-76
2022/10/15 07:43:25;;;;;;;4.85;3.03;;;17.90;64.70;;;;;;5071158;28;20056;-76
2022/10/15 07:45:51;;;;;;;3.92;3.17;;;18.00;64.70;;;;;;5072103;28;20412;-76
2022/10/15 07:48:19;;;;;;;3.78;2.83;;;18.00;64.60;;;;;;5070281;28;20055;-76
2022/10/15 07:50:46;;;;;;;5.22;3.50;;;18.00;64.60;;;;;;5070196;28;20408;-76
2022/10/15 07:53:13;;;;;;;5.68;3.03;;;18.00;64.50;;;;;;5070449;28;20060;-77
2022/10/15 07:55:40;;;;;;;5.63;3.13;;;18.00;64.50;;;;;;5070807;28;20131;-76
2022/10/15 07:58:07;;;;;;;4.50;3.30;;;18.10;64.50;;;;;;5070801;28;20078;-76
2022/10/15 08:00:34;;;;;;;5.13;3.28;;;18.10;64.40;;;;;;5070430;28;20048;-76
2022/10/15 08:03:01;;;;;;;3.85;3.10;;;18.10;64.40;;;;;;5070089;28;20131;-76
2022/10/15 08:05:29;;;;;;;4.80;3.00;;;18.20;64.40;;;;;;5071855;28;20505;-76
2022/10/15 08:07:55;;;;;;;4.18;2.92;;;18.20;64.40;;;;;;5070570;28;20063;-77
2022/10/15 08:10:22;;;;;;;3.60;2.85;;;18.20;64.40;;;;;;5071404;28;20557;-76
2022/10/15 08:12:49;;;;;;;3.95;2.80;;;18.20;64.30;;;;;;5070709;28;20064;-76
2022/10/15 08:15:16;;;;;;;4.25;2.95;;;18.20;64.30;;;;;;5071669;28;20140;-77
2022/10/15 08:17:42;;;;;;;4.40;3.13;;;18.30;64.30;;;;;;5071204;28;20127;-76
2022/10/15 08:20:10;;;;;;;4.47;3.10;;;18.30;64.20;;;;;;5069954;28;20091;-76
2022/10/15 08:22:38;;;;;;;3.83;3.17;;;18.30;64.20;;;;;;5070583;28;20131;-76
2022/10/15 08:25:05;;;;;;;4.82;3.15;;;18.40;64.20;;;;;;5071631;28;20059;-76
2022/10/15 08:27:32;;;;;;;3.30;2.67;;;18.40;64.20;;;;;;5071229;28;20552;-76
2022/10/15 08:29:58;;;;;;;4.72;2.75;;;18.40;64.20;;;;;;5069853;28;20143;-76
2022/10/15 08:32:25;;;;;;;4.38;3.20;;;18.40;64.10;;;;;;5069677;28;20478;-76
2022/10/15 08:34:52;;;;;;;4.15;3.30;;;18.40;64.10;;;;;;5069632;28;20057;-76
2022/10/15 08:37:18;;;;;;;3.50;2.53;;;18.40;64.10;;;;;;5070049;28;20062;-77
2022/10/15 08:39:47;;;;;;;3.53;2.70;;;18.40;64.10;;;;;;5070788;28;20376;-76
2022/10/15 08:42:16;;;;;;;4.97;2.90;;;18.40;64.10;;;;;;5070046;28;20053;-76
2022/10/15 08:44:45;;;;;;;3.22;2.50;;;18.40;64.10;;;;;;5071131;28;20119;-76
2022/10/15 08:47:17;;;;;;;3.75;2.53;;;18.40;64.10;;;;;;5067154;28;20072;-76
2022/10/15 08:49:45;;;;;;;3.45;2.75;;;18.40;64.10;;;;;;5070796;28;20132;-76
2022/10/15 08:52:16;;;;;;;4.70;2.70;;;18.40;64.10;;;;;;5069346;28;20076;-76
2022/10/15 08:54:43;;;;;;;4.40;2.60;;;18.40;64.10;;;;;;5074377;28;20043;-76
2022/10/15 08:57:17;;;;;;;5.03;3.00;;;18.40;64.10;;;;;;5072027;28;20067;-76
2022/10/15 08:59:46;;;;;;;3.72;2.65;;;18.40;64.10;;;;;;5072603;28;20060;-76
2022/10/15 09:02:15;;;;;;;3.63;2.50;;;18.30;64.10;;;;;;5071799;28;20067;-76
2022/10/15 09:04:48;;;;;;;3.97;2.85;;;18.30;64.20;;;;;;5074837;28;20419;-76
2022/10/15 09:07:16;;;;;;;3.45;2.58;;;18.30;64.20;;;;;;5072396;28;20128;-76
2022/10/15 09:09:44;;;;;;;3.53;2.60;;;18.30;64.20;;;;;;5073004;28;20128;-76
2022/10/15 09:12:34;;;;;;;3.35;2.35;;;18.30;64.20;;;;;;5072889;28;20056;-76
2022/10/15 09:15:01;;;;;;;4.00;2.70;;;18.30;64.10;;;;;;5071053;28;20156;-76
2022/10/15 09:17:28;;;;;;;4.72;3.20;;;18.30;64.30;;;;;;5072480;28;20394;-76
2022/10/15 09:20:03;;;;;;;4.20;2.70;;;18.30;64.20;;;;;;5072563;28;20052;-76
2022/10/15 09:22:31;;;;;;;3.85;2.70;;;18.30;64.20;;;;;;5070171;28;20127;-76
2022/10/15 09:24:58;;;;;;;3.53;2.70;;;18.30;64.30;;;;;;5073125;28;20063;-76
2022/10/15 09:27:31;;;;;;;2.50;2.25;;;18.30;64.30;;;;;;5072508;28;20064;-76
2022/10/15 09:30:02;;;;;;;3.40;2.70;;;18.20;64.20;;;;;;5070170;28;20127;-77
2022/10/15 09:32:32;;;;;;;3.70;2.50;;;18.20;64.20;;;;;;5071983;28;20475;-76
2022/10/15 09:35:01;;;;;;;3.53;2.50;;;18.20;64.20;;;;;;5072858;28;20052;-76
2022/10/15 09:37:29;;;;;;;2.88;2.53;;;18.20;64.20;;;;;;5072611;28;20090;-76
2022/10/15 09:40:16;;;;;;;2.92;2.30;;;18.20;64.20;;;;;;5069987;28;20051;-76
2022/10/15 09:42:44;;;;;;;3.25;2.40;;;18.20;64.20;;;;;;5070824;28;20124;-76
2022/10/15 09:45:12;;;;;;;2.83;2.35;;;18.20;64.20;;;;;;5073469;28;20104;-76
2022/10/15 09:47:39;;;;;;;3.33;2.40;;;18.30;64.80;;;;;;5071600;28;20048;-76
2022/10/15 09:50:08;;;;;;;2.95;2.35;;;18.20;64.70;;;;;;5071819;28;20123;-75
2022/10/15 09:52:44;;;;;;;3.10;2.33;;;18.20;64.10;;;;;;5071877;28;20048;-77
2022/10/15 09:55:18;;;;;;;3.15;2.53;;;18.20;64.10;;;;;;5072010;28;20055;-77
2022/10/15 09:57:48;;;;;;;3.13;2.28;;;18.20;64.10;;;;;;5072020;28;20114;-77
2022/10/15 10:00:15;;;;;;;3.42;2.40;;;18.20;64.10;;;;;;5071599;28;20054;-76
2022/10/15 10:02:41;;;;;;;3.47;2.40;;;18.20;64.20;;;;;;5072068;28;20053;-76
2022/10/15 10:05:27;;;;;;;2.92;2.58;;;18.20;64.10;;;;;;5071911;28;20056;-76
2022/10/15 10:08:07;;;;;;;2.97;2.22;;;18.20;64.10;;;;;;5071610;28;20041;-76
2022/10/15 10:10:34;;;;;;;3.30;2.47;;;18.20;64.20;;;;;;5071117;28;20044;-76
2022/10/15 10:13:02;;;;;;;3.28;2.42;;;18.10;64.20;;;;;;5072157;28;20234;-76
2022/10/15 10:15:32;;;;;;;2.90;2.53;;;18.10;64.20;;;;;;5072054;28;20219;-76
2022/10/15 10:17:59;;;;;;;2.67;2.22;;;18.10;64.20;;;;;;5072201;28;20478;-76
2022/10/15 10:20:26;;;;;;;3.17;2.50;;;18.10;64.20;;;;;;5071439;28;20131;-76
2022/10/15 10:22:53;;;;;;;3.67;2.83;;;18.10;64.20;;;;;;5070822;28;20061;-75
2022/10/15 10:25:32;;;;;;;3.80;2.80;;;18.10;64.20;;;;;;5071750;28;20139;-76
2022/10/15 10:28:05;;;;;;;3.30;2.47;;;18.10;64.20;;;;;;5070508;28;20048;-76
2022/10/15 10:30:36;;;;;;;4.43;2.67;;;18.10;64.30;;;;;;5071317;28;20040;-76
2022/10/15 10:33:03;;;;;;;3.45;2.70;;;18.00;64.30;;;;;;5071589;28;20056;-76
2022/10/15 10:35:35;;;;;;;3.63;2.70;;;18.00;64.30;;;;;;5071207;28;20123;-76
2022/10/15 10:38:02;;;;;;;3.97;2.50;;;18.10;64.30;;;;;;5069820;28;20505;-76
2022/10/15 10:40:29;;;;;;;2.95;2.47;;;18.00;64.30;;;;;;5070827;28;20062;-76
2022/10/15 10:43:11;;;;;;;4.78;2.90;;;18.00;64.30;;;;;;5071380;28;20504;-76
2022/10/15 10:45:38;;;;;;;3.67;2.60;;;18.00;64.30;;;;;;5070466;28;20102;-76
2022/10/15 10:48:21;;;;;;;3.35;2.58;;;18.00;64.40;;;;;;5070723;28;20059;-72
2022/10/15 10:50:47;;;;;;;3.33;2.67;;;18.00;64.30;;;;;;5071175;28;20490;-75
2022/10/15 10:53:21;;;;;;;3.42;2.80;;;18.00;64.40;;;;;;5071701;28;20141;-76
2022/10/15 10:55:48;;;;;;;3.58;2.90;;;18.00;64.40;;;;;;5071645;28;20528;-76
2022/10/15 10:58:19;;;;;;;3.00;2.53;;;18.00;65.00;;;;;;5071820;28;20508;-73
2022/10/15 11:00:46;;;;;;;3.95;2.88;;;18.00;64.40;;;;;;5070842;28;20409;-76
2022/10/15 11:03:20;;;;;;;3.35;2.80;;;17.90;64.30;;;;;;5070741;28;20129;-75
2022/10/15 11:05:47;;;;;;;4.70;3.13;;;18.00;64.40;;;;;;5069849;28;20161;-76
2022/10/15 11:08:16;;;;;;;3.13;2.83;;;18.00;64.40;;;;;;5070664;28;20178;-76
2022/10/15 11:10:46;;;;;;;3.03;2.53;;;18.00;64.40;;;;;;5067621;28;20048;-75
2022/10/15 11:13:30;;;;;;;3.63;2.80;;;18.00;64.50;;;;;;5071752;28;20094;-76
2022/10/15 11:15:59;;;;;;;3.78;3.03;;;18.00;64.40;;;;;;5069985;28;20174;-76
2022/10/15 11:18:44;;;;;;;4.68;2.83;;;17.90;64.40;;;;;;5070576;28;20090;-76
2022/10/15 11:21:14;;;;;;;;;;;18.00;64.50;;;;;;5069161;28;20431;-77
2022/10/15 11:23:50;;;;;;;5.30;3.22;;;17.90;64.40;;;;;;5070493;28;19924;-76
2022/10/15 11:26:33;;;;;;;9.32;3.53;;;18.00;64.70;;;;;;5070740;28;20132;-75
2022/10/15 11:29:06;;;;;;;3.20;2.90;;;18.00;64.60;;;;;;5070275;28;20059;-76
2022/10/15 11:31:35;;;;;;;3.95;2.80;;;18.00;64.60;;;;;;5070425;28;20047;-76
2022/10/15 11:34:09;;;;;;;4.18;3.20;;;18.00;64.60;;;;;;5067668;28;20131;-76
2022/10/15 11:36:44;;;;;;;7.15;3.10;;;18.00;64.50;;;;;;5070481;28;20139;-76
2022/10/15 11:39:23;;;;;;;7.03;3.08;;;18.00;64.50;;;;;;5054613;28;20074;-76
2022/10/15 11:41:52;;;;;;;5.25;3.08;;;18.00;64.50;;;;;;5068901;28;20390;-77
2022/10/15 11:44:32;;;;;;;4.93;3.45;;;18.10;64.50;;;;;;5070048;28;20136;-77
2022/10/15 11:47:08;;;;;;;3.97;3.05;;;18.10;64.50;;;;;;5070422;28;20052;-77
2022/10/15 11:49:39;;;;;;;3.30;2.58;;;18.10;64.50;;;;;;5069061;28;20521;-77
2022/10/15 11:52:13;;;;;;;5.32;3.30;;;18.10;64.50;;;;;;5068033;28;20131;-77
2022/10/15 11:54:41;;;;;;;5.85;3.22;;;18.10;65.00;;;;;;5070578;28;20048;-76
2022/10/15 11:57:08;;;;;;;4.80;3.25;;;18.10;64.60;;;;;;5070144;28;20080;-76
2022/10/15 11:59:38;;;;;;;4.15;2.95;;;18.10;64.60;;;;;;5069718;28;20048;-76
2022/10/15 12:02:08;;;;;;;4.35;2.83;;;18.10;64.50;;;;;;5067659;28;20045;-76
2022/10/15 12:04:38;;;;;;;5.55;3.13;;;18.10;64.60;;;;;;5070385;28;20143;-76
2022/10/15 12:07:06;;;;;;;3.47;2.72;;;18.10;64.50;;;;;;5075821;28;20056;-77
2022/10/15 12:09:35;;;;;;;4.80;3.08;;;18.10;64.50;;;;;;5077235;28;20123;-76
2022/10/15 12:12:04;;;;;;;5.30;3.25;;;18.10;64.60;;;;;;5085460;28;20433;-76
2022/10/15 12:14:34;;;;;;;3.70;2.85;;;18.10;64.60;;;;;;5071798;28;20095;-73
2022/10/15 12:17:04;;;;;;;8.10;3.88;;;18.10;64.60;;;;;;5070737;28;20048;-76
2022/10/15 12:19:36;;;;;;;3.88;2.88;;;18.10;64.60;;;;;;5070193;28;20060;-76
2022/10/15 12:22:10;;;;;;;4.05;2.90;;;18.10;64.50;;;;;;5072016;28;20144;-77
2022/10/15 12:24:51;;;;;;;4.63;3.30;;;18.10;64.60;;;;;;5071682;28;20137;-76
2022/10/15 12:27:21;;;;;;;3.95;3.10;;;18.10;64.50;;;;;;5074093;28;20049;-76
2022/10/15 12:29:48;;;;;;;4.40;3.05;;;18.10;64.60;;;;;;5073576;28;20493;-75
2022/10/15 12:32:22;;;;;;;4.65;2.80;;;18.10;64.60;;;;;;5074034;28;20463;-75
2022/10/15 12:34:54;;;;;;;4.95;3.00;;;18.10;64.50;;;;;;5073606;28;20145;-75
2022/10/15 12:37:22;;;;;;;3.42;2.60;;;18.10;64.60;;;;;;5073907;28;20060;-75
2022/10/15 12:39:50;;;;;;;3.22;2.67;;;18.10;64.60;;;;;;5073816;28;20049;-75
2022/10/15 12:42:21;;;;;;;3.03;2.58;;;18.10;64.50;;;;;;5074066;28;20132;-75
2022/10/15 12:44:48;;;;;;;4.50;3.00;;;18.10;64.50;;;;;;5073921;28;20057;-76
2022/10/15 12:47:14;;;;;;;5.10;3.10;;;18.10;64.50;;;;;;5072926;28;20135;-76
2022/10/15 12:49:59;;;;;;;4.20;2.88;;;18.10;64.50;;;;;;5074814;28;20049;-75
2022/10/15 12:52:55;;;;;;;4.22;2.95;;;18.20;64.40;;;;;;5073843;28;20135;-76
2022/10/15 12:55:27;;;;;;;3.67;2.90;;;18.10;64.40;;;;;;5073738;28;20060;-75
2022/10/15 12:57:58;;;;;;;3.95;2.90;;;18.10;64.50;;;;;;5073550;28;20056;-76